createdAt,value
2023-05-19T00:02:44.150Z,12.54
2023-05-19T00:05:46.324Z,12.56
2023-05-19T00:08:49.614Z,12.53
2023-05-19T00:11:51.530Z,12.56
2023-05-19T00:14:53.394Z,12.53
2023-05-19T00:17:55.584Z,12.50
2023-05-19T00:20:57.295Z,12.48
2023-05-19T00:23:59.245Z,12.35
2023-05-19T00:27:00.860Z,12.31
2023-05-19T00:30:02.482Z,12.33
2023-05-19T00:33:04.203Z,12.25
2023-05-19T00:36:06.447Z,12.11
2023-05-19T00:39:08.102Z,11.99
2023-05-19T00:42:09.740Z,11.84
2023-05-19T00:45:11.326Z,11.80
2023-05-19T00:48:12.966Z,11.65
2023-05-19T00:51:17.164Z,11.67
2023-05-19T00:54:20.658Z,11.61
2023-05-19T00:57:22.508Z,11.49
2023-05-19T01:00:24.753Z,11.50
2023-05-19T01:03:26.639Z,11.46
2023-05-19T01:06:29.637Z,11.38
2023-05-19T01:09:32.280Z,11.36
2023-05-19T01:12:34.887Z,11.32
2023-05-19T01:15:52.245Z,11.23
2023-05-19T01:19:12.367Z,11.27
2023-05-19T01:22:42.829Z,11.23
2023-05-19T01:26:13.756Z,11.22
2023-05-19T01:29:35.562Z,11.23
2023-05-19T01:32:41.292Z,11.12
2023-05-19T01:35:44.135Z,11.11
2023-05-19T01:38:47.408Z,11.13
2023-05-19T01:41:49.382Z,11.10
2023-05-19T01:44:52.148Z,11.02
2023-05-19T01:47:56.924Z,11.14
2023-05-19T01:50:58.937Z,11.14
2023-05-19T01:54:00.719Z,11.11
2023-05-19T01:57:41.109Z,11.11
2023-05-19T02:00:53.342Z,11.10
2023-05-19T02:04:19.795Z,11.09
2023-05-19T02:07:44.417Z,11.10
2023-05-19T02:10:51.680Z,11.07
2023-05-19T02:13:57.355Z,11.07
2023-05-19T02:16:59.582Z,11.06
2023-05-19T02:20:01.191Z,11.04
2023-05-19T02:23:02.832Z,11.03
2023-05-19T02:26:04.855Z,11.04
2023-05-19T02:29:06.532Z,11.08
2023-05-19T02:32:08.280Z,11.05
2023-05-19T02:35:10.131Z,10.98
2023-05-19T02:38:11.709Z,10.97
2023-05-19T02:41:13.341Z,10.96
2023-05-19T02:44:15.071Z,10.94
2023-05-19T02:47:16.646Z,10.83
2023-05-19T02:50:18.287Z,10.84
2023-05-19T02:53:19.866Z,10.92
2023-05-19T02:56:21.813Z,10.88
2023-05-19T02:59:25.480Z,10.91
2023-05-19T03:02:27.444Z,10.92
2023-05-19T03:05:30.363Z,10.90
2023-05-19T03:08:32.050Z,10.90
2023-05-19T03:11:33.800Z,10.81
2023-05-19T03:14:37.776Z,10.91
2023-05-19T03:17:39.542Z,10.88
2023-05-19T03:20:42.529Z,10.86
2023-05-19T03:23:44.139Z,10.90
2023-05-19T03:26:46.050Z,10.76
2023-05-19T03:29:47.676Z,10.84
2023-05-19T03:32:49.412Z,10.77
2023-05-19T03:35:53.036Z,10.69
2023-05-19T03:38:54.674Z,10.73
2023-05-19T03:41:56.447Z,10.80
2023-05-19T03:44:58.039Z,10.78
2023-05-19T03:47:59.717Z,10.80
2023-05-19T03:51:01.444Z,10.81
2023-05-19T03:54:03.530Z,10.82
2023-05-19T03:57:05.946Z,10.89
2023-05-19T04:00:08.336Z,10.87
2023-05-19T04:03:10.095Z,11.05
2023-05-19T04:06:12.966Z,11.09
2023-05-19T04:09:15.986Z,11.23
2023-05-19T04:12:17.573Z,11.32
2023-05-19T04:15:19.203Z,11.34
2023-05-19T04:18:21.030Z,11.48
2023-05-19T04:21:22.862Z,11.53
2023-05-19T04:24:26.804Z,11.48
2023-05-19T04:27:30.000Z,11.39
2023-05-19T04:30:31.935Z,11.54
2023-05-19T04:33:34.008Z,11.56
2023-05-19T04:36:35.761Z,11.63
2023-05-19T04:39:43.108Z,11.62
2023-05-19T04:42:46.251Z,11.77
2023-05-19T04:45:50.224Z,11.96
2023-05-19T04:48:53.211Z,12.17
2023-05-19T04:51:56.643Z,12.15
2023-05-19T04:54:58.234Z,12.31
2023-05-19T04:57:59.867Z,12.47
2023-05-19T05:01:01.473Z,12.55
2023-05-19T05:04:03.160Z,12.54
2023-05-19T05:07:05.001Z,12.61
2023-05-19T05:10:07.348Z,12.58
2023-05-19T05:13:11.206Z,12.60
2023-05-19T05:16:14.161Z,12.56
2023-05-19T05:19:16.486Z,12.62
2023-05-19T05:22:18.475Z,12.69
2023-05-19T05:25:20.819Z,12.79
2023-05-19T05:28:22.713Z,12.76
2023-05-19T05:31:24.304Z,12.79
2023-05-19T05:34:26.047Z,12.92
2023-05-19T05:37:28.011Z,12.89
2023-05-19T05:40:29.735Z,13.02
2023-05-19T05:43:31.364Z,13.32
2023-05-19T05:46:33.125Z,13.58
2023-05-19T05:49:38.208Z,13.89
2023-05-19T05:52:41.538Z,14.04
2023-05-19T05:55:43.550Z,14.12
2023-05-19T05:58:45.275Z,14.23
2023-05-19T06:01:46.862Z,14.16
2023-05-19T06:04:48.816Z,14.16
2023-05-19T06:07:50.404Z,14.05
2023-05-19T06:10:52.010Z,14.00
2023-05-19T06:13:53.634Z,14.02
2023-05-19T06:16:55.689Z,14.06
2023-05-19T06:19:57.420Z,14.51
2023-05-19T06:23:01.016Z,13.99
2023-05-19T06:26:02.655Z,14.16
2023-05-19T06:29:04.336Z,14.17
2023-05-19T06:32:05.952Z,14.56
2023-05-19T06:35:07.946Z,14.80
2023-05-19T06:38:09.573Z,14.64
2023-05-19T06:41:11.136Z,14.26
2023-05-19T06:44:12.744Z,14.53
2023-05-19T06:47:14.419Z,14.79
2023-05-19T06:50:16.279Z,14.94
2023-05-19T06:53:19.996Z,15.38
2023-05-19T06:56:22.983Z,15.56
2023-05-19T06:59:24.649Z,15.80
2023-05-19T07:02:26.381Z,16.00
2023-05-19T07:05:28.082Z,15.93
2023-05-19T07:08:29.708Z,16.03
2023-05-19T07:11:31.386Z,15.87
2023-05-19T07:14:33.103Z,15.57
2023-05-19T07:17:34.811Z,15.93
2023-05-19T07:20:36.465Z,15.95
2023-05-19T07:23:38.044Z,16.05
2023-05-19T07:26:40.545Z,16.26
2023-05-19T07:29:42.180Z,16.52
2023-05-19T07:32:43.866Z,16.78
2023-05-19T07:35:46.359Z,16.55
2023-05-19T07:38:49.039Z,17.00
2023-05-19T07:41:54.304Z,16.47
2023-05-19T07:44:56.160Z,16.85
2023-05-19T07:47:57.912Z,16.93
2023-05-19T07:50:59.540Z,17.20
2023-05-19T07:54:01.177Z,17.23
2023-05-19T07:57:02.774Z,17.71
2023-05-19T08:00:07.936Z,17.98
2023-05-19T08:03:10.088Z,18.19
2023-05-19T08:06:11.933Z,17.84
2023-05-19T08:09:13.557Z,17.99
2023-05-19T08:12:15.157Z,18.27
2023-05-19T08:15:16.889Z,18.79
2023-05-19T08:18:18.612Z,18.65
2023-05-19T08:21:20.286Z,18.12
2023-05-19T08:24:21.859Z,18.94
2023-05-19T08:27:23.663Z,18.84
2023-05-19T08:30:26.447Z,19.17
2023-05-19T08:33:28.363Z,19.64
2023-05-19T08:36:30.731Z,19.44
2023-05-19T08:39:34.209Z,19.83
2023-05-19T08:42:35.871Z,19.48
2023-05-19T08:45:41.010Z,18.83
2023-05-19T08:48:44.275Z,18.34
2023-05-19T08:52:17.291Z,18.57
2023-05-19T08:55:21.845Z,18.29
2023-05-19T08:58:23.561Z,17.58
2023-05-19T09:01:26.772Z,18.02
2023-05-19T09:04:30.069Z,19.52
2023-05-19T09:07:34.981Z,20.71
2023-05-19T09:10:36.618Z,21.57
2023-05-19T09:13:44.434Z,20.44
2023-05-19T09:16:49.812Z,19.26
2023-05-19T09:19:51.530Z,19.62
2023-05-19T09:22:53.215Z,19.81
2023-05-19T09:25:56.281Z,20.40
2023-05-19T09:28:58.431Z,20.13
2023-05-19T09:32:06.078Z,21.22
2023-05-19T09:35:08.238Z,20.64
2023-05-19T09:38:09.833Z,20.38
2023-05-19T09:41:14.681Z,19.96
2023-05-19T09:44:30.476Z,20.62
2023-05-19T09:47:39.813Z,19.63
2023-05-19T09:50:44.138Z,20.24
2023-05-19T09:53:46.585Z,20.78
2023-05-19T09:56:58.796Z,21.78
2023-05-19T10:00:00.723Z,21.71
2023-05-19T10:03:04.945Z,20.92
2023-05-19T10:06:09.205Z,20.99
2023-05-19T10:09:11.240Z,21.44
2023-05-19T10:12:13.514Z,21.81
2023-05-19T10:15:22.185Z,21.67
2023-05-19T10:18:25.879Z,22.75
2023-05-19T10:21:27.826Z,23.79
2023-05-19T10:24:29.491Z,23.25
2023-05-19T10:27:32.794Z,24.48
2023-05-19T10:30:46.494Z,24.48
2023-05-19T10:34:09.643Z,23.91
2023-05-19T10:37:22.199Z,23.99
2023-05-19T10:40:29.780Z,23.63
2023-05-19T10:43:50.914Z,22.50
2023-05-19T10:46:54.203Z,22.95
2023-05-19T10:50:00.822Z,23.17
2023-05-19T10:53:02.822Z,23.00
2023-05-19T10:56:04.708Z,23.55
2023-05-19T10:59:06.423Z,24.38
2023-05-19T11:02:09.046Z,24.79
2023-05-19T11:05:16.809Z,24.97
2023-05-19T11:08:32.547Z,25.43
2023-05-19T11:11:48.367Z,24.43
2023-05-19T11:14:54.394Z,23.76
2023-05-19T11:17:56.891Z,25.00
2023-05-19T11:21:02.378Z,25.68
2023-05-19T11:24:08.940Z,25.89
2023-05-19T11:27:31.736Z,25.42
2023-05-19T11:30:33.586Z,23.57
2023-05-19T11:33:36.132Z,24.03
2023-05-19T11:36:40.044Z,25.29
2023-05-19T11:39:43.877Z,26.62
2023-05-19T11:42:45.608Z,26.68
2023-05-19T11:45:47.263Z,27.67
2023-05-19T11:48:50.591Z,27.76
2023-05-19T11:51:52.296Z,26.38
2023-05-19T11:54:54.104Z,26.20
2023-05-19T11:58:03.874Z,26.31
2023-05-19T12:01:07.054Z,27.63
2023-05-19T12:04:10.314Z,28.12
2023-05-19T12:07:13.496Z,27.19
2023-05-19T12:10:15.764Z,26.06
2023-05-19T12:13:17.417Z,25.93
2023-05-19T12:16:21.077Z,27.33
2023-05-19T12:19:24.236Z,27.50
2023-05-19T12:22:26.042Z,28.34
2023-05-19T12:25:29.224Z,27.05
2023-05-19T12:28:33.807Z,26.41
2023-05-19T12:31:35.973Z,26.40
2023-05-19T12:34:38.710Z,25.09
2023-05-19T12:37:43.128Z,25.15
2023-05-19T12:40:44.920Z,25.06
2023-05-19T12:43:46.608Z,26.15
2023-05-19T12:46:52.219Z,26.78
2023-05-19T12:50:00.423Z,25.22
2023-05-19T12:53:02.082Z,26.38
2023-05-19T12:56:14.362Z,26.64
2023-05-19T12:59:38.891Z,27.85
2023-05-19T13:03:05.403Z,28.22
2023-05-19T13:06:07.503Z,27.96
2023-05-19T13:09:09.175Z,29.60
2023-05-19T13:12:10.752Z,28.47
2023-05-19T13:15:12.403Z,28.27
2023-05-19T13:18:14.532Z,28.10
2023-05-19T13:21:16.123Z,26.53
2023-05-19T13:24:17.783Z,28.33
2023-05-19T13:27:19.655Z,29.53
2023-05-19T13:30:22.112Z,28.35
2023-05-19T13:33:23.706Z,27.49
2023-05-19T13:36:27.926Z,26.39
2023-05-19T13:39:29.585Z,26.44
2023-05-19T13:42:33.052Z,25.26
2023-05-19T13:45:34.795Z,24.87
2023-05-19T13:48:36.477Z,24.88
2023-05-19T13:51:39.670Z,25.46
2023-05-19T13:54:41.328Z,25.28
2023-05-19T13:57:44.092Z,25.90
2023-05-19T14:00:45.920Z,25.71
2023-05-19T14:03:47.624Z,25.89
2023-05-19T14:06:49.274Z,25.94
2023-05-19T14:09:52.496Z,25.42
2023-05-19T14:13:18.213Z,25.58
2023-05-19T14:16:16.298Z,25.29
2023-05-19T14:19:18.066Z,24.76
2023-05-19T14:22:19.730Z,25.47
2023-05-19T14:25:21.750Z,25.33
2023-05-19T14:28:23.369Z,25.46
2023-05-19T14:31:25.876Z,24.83
2023-05-19T14:34:27.874Z,26.02
2023-05-19T14:37:31.775Z,26.79
2023-05-19T14:40:33.714Z,26.43
2023-05-19T14:43:35.518Z,26.07
2023-05-19T14:46:37.248Z,25.76
2023-05-19T14:49:38.929Z,25.64
2023-05-19T14:52:40.535Z,25.69
2023-05-19T14:55:42.802Z,25.01
2023-05-19T14:58:44.458Z,24.40
2023-05-19T15:01:46.141Z,23.88
2023-05-19T15:04:47.877Z,24.13
2023-05-19T15:07:50.594Z,24.08
2023-05-19T15:10:52.239Z,24.22
2023-05-19T15:13:54.089Z,24.35
2023-05-19T15:16:55.793Z,24.86
2023-05-19T15:19:57.413Z,24.54
2023-05-19T15:22:59.068Z,24.72
2023-05-19T15:26:00.771Z,26.69
2023-05-19T15:29:02.425Z,27.29
2023-05-19T15:32:04.137Z,28.07
2023-05-19T15:35:06.253Z,28.64
2023-05-19T15:38:07.914Z,28.40
2023-05-19T15:41:10.175Z,29.23
2023-05-19T15:44:11.988Z,28.23
2023-05-19T15:47:13.844Z,27.91
2023-05-19T15:50:16.784Z,29.05
2023-05-19T15:53:20.206Z,29.93
2023-05-19T15:56:22.467Z,29.53
2023-05-19T15:59:24.078Z,27.72
2023-05-19T16:02:25.823Z,29.25
2023-05-19T16:05:27.504Z,29.84
2023-05-19T16:08:29.605Z,28.59
2023-05-19T16:11:31.247Z,27.98
2023-05-19T16:14:36.454Z,28.60
2023-05-19T16:17:38.158Z,28.08
2023-05-19T16:20:39.823Z,25.84
2023-05-19T16:23:41.445Z,25.29
2023-05-19T16:26:43.106Z,25.29
2023-05-19T16:29:44.704Z,24.98
2023-05-19T16:32:46.469Z,25.15
2023-05-19T16:35:48.131Z,24.40
2023-05-19T16:38:49.799Z,23.84
2023-05-19T16:41:52.850Z,23.61
2023-05-19T16:47:56.069Z,22.41
2023-05-19T16:50:57.756Z,22.42
2023-05-19T16:53:59.991Z,22.26
2023-05-19T16:57:02.389Z,21.95
2023-05-19T17:00:04.561Z,21.85
2023-05-19T17:03:06.447Z,21.63
2023-05-19T17:06:08.178Z,21.52
2023-05-19T17:09:09.753Z,21.24
2023-05-19T17:12:11.376Z,20.92
2023-05-19T17:15:13.078Z,20.57
2023-05-19T17:18:16.056Z,20.51
2023-05-19T17:21:17.837Z,20.36
2023-05-19T17:24:19.487Z,20.14
2023-05-19T17:27:21.209Z,20.00
2023-05-19T17:30:22.808Z,19.74
2023-05-19T17:33:24.643Z,19.55
2023-05-19T17:36:26.492Z,19.47
2023-05-19T17:39:28.196Z,19.32
2023-05-19T17:42:31.612Z,19.13
2023-05-19T17:45:33.281Z,19.00
2023-05-19T17:48:36.286Z,18.84
2023-05-19T17:51:38.356Z,18.74
2023-05-19T17:54:40.187Z,18.54
2023-05-19T17:57:44.722Z,18.31
2023-05-19T18:00:46.585Z,18.21
2023-05-19T18:03:49.831Z,18.13
2023-05-19T18:06:52.659Z,18.00
2023-05-19T18:09:56.088Z,17.88
2023-05-19T18:12:57.785Z,17.75
2023-05-19T18:15:59.756Z,17.56
2023-05-19T18:19:02.045Z,17.55
2023-05-19T18:22:03.886Z,17.39
2023-05-19T18:25:06.077Z,17.21
2023-05-19T18:28:07.905Z,17.07
2023-05-19T18:31:11.035Z,16.93
2023-05-19T18:34:14.060Z,16.71
2023-05-19T18:37:15.733Z,16.52
2023-05-19T18:40:17.515Z,16.51
2023-05-19T18:43:19.404Z,16.44
2023-05-19T18:46:21.050Z,16.39
2023-05-19T18:49:24.965Z,16.30
2023-05-19T18:52:28.678Z,16.27
2023-05-19T18:55:30.479Z,16.25
2023-05-19T18:58:32.538Z,16.19
2023-05-19T19:01:34.202Z,16.20
2023-05-19T19:04:35.826Z,16.24
2023-05-19T19:07:44.808Z,16.19
2023-05-19T19:10:46.445Z,16.17
2023-05-19T19:13:51.317Z,16.13
2023-05-19T19:16:53.140Z,16.27
2023-05-19T19:19:54.836Z,16.48
2023-05-19T19:22:56.922Z,16.49
2023-05-19T19:25:58.677Z,16.46
2023-05-19T19:29:00.448Z,16.37
2023-05-19T19:32:02.112Z,16.35
2023-05-19T19:35:03.916Z,16.33
2023-05-19T19:38:05.516Z,16.34
2023-05-19T19:41:07.223Z,16.33
2023-05-19T19:44:09.008Z,16.36
2023-05-19T19:47:11.166Z,16.47
2023-05-19T19:50:13.016Z,16.31
2023-05-19T19:53:15.597Z,16.46
2023-05-19T19:56:17.262Z,16.45
2023-05-19T19:59:19.588Z,16.42
2023-05-19T20:02:21.851Z,16.35
2023-05-19T20:05:23.526Z,16.21
2023-05-19T20:08:25.793Z,16.19
2023-05-19T20:11:27.415Z,16.17
2023-05-19T20:14:29.069Z,16.10
2023-05-19T20:17:30.803Z,16.21
2023-05-19T20:20:32.556Z,16.30
2023-05-19T20:23:34.291Z,16.31
2023-05-19T20:26:36.299Z,16.30
2023-05-19T20:29:38.008Z,16.29
2023-05-19T20:32:40.190Z,16.17
2023-05-19T20:35:42.008Z,16.10
2023-05-19T20:38:43.670Z,15.99
2023-05-19T20:41:45.390Z,15.93
2023-05-19T20:44:47.005Z,15.81
2023-05-19T20:47:48.639Z,15.69
2023-05-19T20:50:51.237Z,15.66
2023-05-19T20:53:53.434Z,15.61
2023-05-19T20:56:55.074Z,15.50
2023-05-19T20:59:56.738Z,15.60
2023-05-19T21:02:58.423Z,15.54
2023-05-19T21:06:00.915Z,15.53
2023-05-19T21:09:05.186Z,15.55
2023-05-19T21:12:07.065Z,15.53
2023-05-19T21:15:09.806Z,15.56
2023-05-19T21:18:12.424Z,15.62
2023-05-19T21:21:14.307Z,15.64
2023-05-19T21:24:16.122Z,15.72
2023-05-19T21:27:17.766Z,15.73
2023-05-19T21:30:19.434Z,15.83
2023-05-19T21:33:21.067Z,15.88
2023-05-19T21:36:23.499Z,15.97
2023-05-19T21:39:25.149Z,16.11
2023-05-19T21:42:26.790Z,16.16
2023-05-19T21:45:28.685Z,16.15
2023-05-19T21:48:30.980Z,16.02
2023-05-19T21:51:35.083Z,16.06
2023-05-19T21:54:36.699Z,15.99
2023-05-19T21:57:38.468Z,15.93
2023-05-19T22:00:40.551Z,15.82
2023-05-19T22:03:42.289Z,15.66
2023-05-19T22:06:44.075Z,15.41
2023-05-19T22:09:48.132Z,15.35
2023-05-19T22:12:50.506Z,15.31
2023-05-19T22:15:52.350Z,15.40
2023-05-19T22:18:54.013Z,15.37
2023-05-19T22:22:01.724Z,15.21
2023-05-19T22:25:07.937Z,15.25
2023-05-19T22:28:09.621Z,15.29
2023-05-19T22:31:11.229Z,15.25
2023-05-19T22:34:14.495Z,15.16
2023-05-19T22:37:16.216Z,15.12
2023-05-19T22:40:18.171Z,15.10
2023-05-19T22:43:19.790Z,15.04
2023-05-19T22:46:21.524Z,14.97
2023-05-19T22:49:23.257Z,14.95
2023-05-19T22:52:24.942Z,14.89
2023-05-19T22:55:26.739Z,14.77
2023-05-19T22:58:28.325Z,14.77
2023-05-19T23:01:30.003Z,14.79
2023-05-19T23:04:32.455Z,14.80
2023-05-19T23:07:34.146Z,14.72
2023-05-19T23:10:35.890Z,14.54
2023-05-19T23:13:37.664Z,14.48
2023-05-19T23:16:39.249Z,14.42
2023-05-19T23:19:40.962Z,14.40
2023-05-19T23:22:42.594Z,14.40
2023-05-19T23:25:44.221Z,14.41
2023-05-19T23:28:45.952Z,14.57
2023-05-19T23:31:47.637Z,14.52
2023-05-19T23:34:49.263Z,14.52
2023-05-19T23:37:50.940Z,14.41
2023-05-19T23:40:52.572Z,14.43
2023-05-19T23:43:54.496Z,14.37
2023-05-19T23:46:56.307Z,14.38
2023-05-19T23:49:57.897Z,14.25
2023-05-19T23:53:00.716Z,14.12
2023-05-19T23:56:02.319Z,13.98
2023-05-19T23:59:03.929Z,14.00
